• Join FlightAware (Why Join?)
  • Login
  • US Flag 
02:34AM EDT


 

Airport Tracker/Info


-or-


 

Live Flight TrackerFlight Track Log ✈ N551US ✈ 28-Jul-2013 ✈ M01 - KGAD

Flight Track Log - Related Links

Times and Time Zones

All times are in EDT time to prevent confusion due to time zone crossing. See the N551US flight status page for this flight to view local times or setup timezone preferences in your user account.

Time Position Orientation Groundspeed Altitude Reporting Facility
EDT Latitude Longitude Course Direction KTS MPH feet Rate Location/Type
07:02PM 35.2500 -90.0333 90° East 161 185 1,700  Level KMEM
07:03PM 35.2500 -89.9833 90° East 181 208 1,700  Level KMEM
07:04PM 35.2833 -89.9667 22° Northeast 179 206 1,700 300 Level KMEM
07:05PM 35.3333 -89.9667 360° North 167 192 2,300 660 Climbing KMEM
07:06PM 35.3667 -89.9500 22° Northeast 155 178 3,100 720 Climbing KMEM
07:07PM 35.3500 -89.9000 112° Southeast 155 178 3,800 720 Climbing KMEM
07:08PM 35.3333 -89.8500 112° Southeast 156 180 4,600 720 Climbing KMEM
07:09PM 35.3333 -89.8000 90° East 157 181 5,300 660 Climbing KMEM
07:10PM 35.3167 -89.7500 112° Southeast 154 177 6,000 660 Climbing KMEM
07:11PM 35.3000 -89.7000 112° Southeast 151 174 6,700 480 Climbing KMEM
07:12PM 35.2833 -89.6500 112° Southeast 157 181 7,000 120 Climbing KMEM
07:13PM 35.2667 -89.5833 107° East 190 219 7,000 240 Level KMEM
07:14PM 35.2531 -89.5486 116° Southeast 173 199 7,500 600 Climbing Memphis Center
07:15PM 35.2339 -89.4953 114° Southeast 184 212 8,200 600 Climbing Memphis Center
07:16PM 35.2167 -89.4422 112° Southeast 179 206 8,800 360 Climbing Memphis Center
07:17PM 35.1975 -89.3839 112° Southeast 174 200 9,000 60 Climbing Memphis Center
07:18PM 35.1719 -89.3206 116° Southeast 184 212 9,000  Level Memphis Center
07:19PM 35.1483 -89.2575 115° Southeast 198 228 9,000  Level Memphis Center
07:20PM 35.1269 -89.1892 111° Southeast 209 241 9,000  Level Memphis Center
07:21PM 35.1033 -89.1236 114° Southeast 214 246 9,000  Level Memphis Center
07:22PM 35.0797 -89.0606 115° Southeast 214 246 9,000  Level Memphis Center
07:23PM 35.0583 -89.0000 113° Southeast 214 246 9,000  Level Memphis Center
07:24PM 35.0344 -88.9317 113° Southeast 214 246 9,000  Level Memphis Center
07:25PM 35.0131 -88.8689 113° Southeast 214 246 9,000  Level Memphis Center
07:26PM 34.9914 -88.8033 112° Southeast 214 246 9,000  Level Memphis Center
07:27PM 34.9656 -88.7428 117° Southeast 209 241 9,000  Level Memphis Center
07:28PM 34.9417 -88.6775 114° Southeast 209 241 9,000  Level Memphis Center
07:29PM 34.9200 -88.6094 111° Southeast 204 235 9,000  Level Memphis Center
07:30PM 34.8939 -88.5442 116° Southeast 204 235 9,000  Level Memphis Center
07:31PM 34.8742 -88.4864 113° Southeast 197 227 9,000  Level Memphis Center
07:32PM 34.8503 -88.4264 116° Southeast 192 221 9,000  Level Memphis Center
07:33PM 34.8286 -88.3611 112° Southeast 198 228 9,000  Level Memphis Center
07:34PM 34.8067 -88.2983 113° Southeast 198 228 9,000  Level Memphis Center
07:35PM 34.7806 -88.2383 118° Southeast 198 228 9,000  Level Memphis Center
07:36PM 34.7606 -88.1756 111° Southeast 198 228 9,000  Level Memphis Center
07:37PM 34.7367 -88.1131 115° Southeast 198 228 9,000  Level Memphis Center
07:38PM 34.7147 -88.0531 114° Southeast 198 228 9,000  Level Memphis Center
07:39PM 34.6906 -87.9881 114° Southeast 198 228 9,000  Level Memphis Center
07:40PM 34.6683 -87.9281 114° Southeast 198 228 9,000  Level Memphis Center
07:41PM 34.6464 -87.8631 112° Southeast 198 228 9,000  Level Memphis Center
07:42PM 34.6242 -87.8031 114° Southeast 198 228 9,000  Level Memphis Center
07:43PM 34.6000 -87.7406 115° Southeast 198 228 9,000  Level Memphis Center
07:44PM 34.5778 -87.6783 113° Southeast 198 228 9,000  Level Memphis Center
07:45PM 34.5578 -87.6233 114° Southeast 198 228 9,000  Level Memphis Center
07:46PM 34.5333 -87.5611 115° Southeast 198 228 9,000  Level Memphis Center
07:47PM 34.5111 -87.4989 113° Southeast 198 228 9,000  Level Memphis Center
07:48PM 34.4867 -87.4342 115° Southeast 198 228 9,000  Level Memphis Center
07:49PM 34.4644 -87.3719 113° Southeast 198 228 9,000  Level Memphis Center
07:50PM 34.4400 -87.3125 116° Southeast 198 228 9,000  Level Memphis Center
07:51PM 34.4175 -87.2478 113° Southeast 198 228 9,000  Level Memphis Center
07:52PM 34.3950 -87.1881 115° Southeast 198 228 9,000 -120 Level Memphis Center
07:53PM 34.3706 -87.1261 116° Southeast 198 228 8,800 -300 Descending Memphis Center
07:54PM 34.3503 -87.0667 112° Southeast 198 228 8,500 -300 Descending Memphis Center
07:55PM 34.3256 -87.0072 117° Southeast 198 228 8,200 -300 Descending Memphis Center
07:56PM 34.3011 -86.9453 116° Southeast 198 228 7,900 -300 Descending Memphis Center
07:57PM 34.2806 -86.8858 113° Southeast 198 228 7,600 -420 Descending Memphis Center
07:58PM 34.2558 -86.8239 116° Southeast 198 228 7,100 -600 Descending Memphis Center
07:59PM 34.2356 -86.7644 112° Southeast 198 228 6,500 -600 Descending Memphis Center
08:00PM 34.2128 -86.7078 116° Southeast 198 228 5,900 -600 Descending Memphis Center
08:01PM 34.1903 -86.6483 115° Southeast 198 228 5,300 -540 Descending Memphis Center
08:02PM 34.1678 -86.5917 116° Southeast 198 228 4,900 -600 Descending Memphis Center
08:03PM 34.1431 -86.5325 117° Southeast 198 228 4,200 -660 Descending Memphis Center
08:05PM 34.1128 -86.4575 116° Southeast 191 220 3,500 -540 Descending Atlanta Center
08:06PM 34.0911 -86.3992 114° Southeast 190 219 3,000 -540 Descending Atlanta Center